GIA411 WADD-WIII
Flight info
| Callsign | GIA411 |
|---|---|
| Flight time | N/A |
| Altitude | 36000 |
| Route | OKANG T4 FARIZ T6 KURUS |
| Aircraft | B738/M-SDE2E3FGHIRWXY/LB1 |
Departure
| Time | 2026-05-05 11:54 |
|---|---|
| Airport | Denpasar I Gusti Ngurah Rai International Airport (WADD) |
Arrival
| Time | N/A |
|---|---|
| Airport | Soekarno-Hatta International Airport (WIII) |
| Time | Latitude | Longitude | Altitude | Speed | Heading |
|---|---|---|---|---|---|
| 2026-05-05 11:52 | -8.74781 | 115.15385 | 30 ft | 0 kts | 184° |
| 2026-05-05 11:52 | -8.74797 | 115.15389 | 29 ft | 9 kts | 170° |
| 2026-05-05 11:52 | -8.74874 | 115.15395 | 27 ft | 7 kts | 175° |
| 2026-05-05 11:53 | -8.74902 | 115.15426 | 28 ft | 6 kts | 100° |
| 2026-05-05 11:53 | -8.74895 | 115.15470 | 28 ft | 6 kts | 86° |
| 2026-05-05 11:53 | -8.74893 | 115.15514 | 28 ft | 6 kts | 86° |
| 2026-05-05 11:53 | -8.74889 | 115.15607 | 28 ft | 42 kts | 87° |
| 2026-05-05 11:54 | -8.74869 | 115.16216 | 27 ft | 128 kts | 89° |
| 2026-05-05 11:54 | -8.74839 | 115.17325 | 303 ft | 173 kts | 90° |
| 2026-05-05 11:54 | -8.74809 | 115.18533 | 1409 ft | 174 kts | 90° |
| 2026-05-05 11:54 | -8.74761 | 115.19900 | 1794 ft | 213 kts | 89° |
| 2026-05-05 11:55 | -8.74690 | 115.21480 | 2075 ft | 237 kts | 88° |
| 2026-05-05 11:55 | -8.74610 | 115.23201 | 2567 ft | 252 kts | 88° |
| 2026-05-05 11:55 | -8.74528 | 115.24991 | 3404 ft | 255 kts | 88° |
| 2026-05-05 11:55 | -8.74448 | 115.26805 | 4208 ft | 260 kts | 88° |
| 2026-05-05 11:56 | -8.74367 | 115.28664 | 4925 ft | 270 kts | 88° |
| 2026-05-05 11:56 | -8.74287 | 115.30547 | 5864 ft | 268 kts | 88° |
| 2026-05-05 11:56 | -8.74206 | 115.32460 | 6580 ft | 275 kts | 88° |
| 2026-05-05 11:56 | -8.74126 | 115.34374 | 7519 ft | 271 kts | 88° |
| 2026-05-05 11:57 | -8.74046 | 115.36286 | 8296 ft | 274 kts | 89° |
| 2026-05-05 11:57 | -8.73965 | 115.38232 | 8786 ft | 279 kts | 89° |
| 2026-05-05 11:57 | -8.73884 | 115.40202 | 9010 ft | 283 kts | 89° |
| 2026-05-05 11:57 | -8.73801 | 115.42204 | 9021 ft | 285 kts | 89° |
| 2026-05-05 11:58 | -8.73719 | 115.44168 | 9019 ft | 282 kts | 89° |
| 2026-05-05 11:58 | -8.73636 | 115.46147 | 9017 ft | 280 kts | 89° |
| 2026-05-05 11:58 | -8.73554 | 115.48109 | 9027 ft | 279 kts | 89° |
| 2026-05-05 11:58 | -8.73377 | 115.50058 | 9012 ft | 279 kts | 76° |
| 2026-05-05 11:59 | -8.72553 | 115.51836 | 9035 ft | 284 kts | 54° |
| 2026-05-05 11:59 | -8.71202 | 115.53325 | 9044 ft | 290 kts | 47° |
| 2026-05-05 11:59 | -8.69757 | 115.54760 | 9034 ft | 290 kts | 46° |
| 2026-05-05 11:59 | -8.68327 | 115.56162 | 9023 ft | 290 kts | 46° |
| 2026-05-05 12:00 | -8.66883 | 115.57586 | 9023 ft | 290 kts | 46° |
| 2026-05-05 12:00 | -8.65447 | 115.59010 | 9027 ft | 289 kts | 46° |
| 2026-05-05 12:00 | -8.64017 | 115.60435 | 9029 ft | 288 kts | 47° |
| 2026-05-05 12:00 | -8.62592 | 115.61860 | 9032 ft | 288 kts | 47° |
| 2026-05-05 12:01 | -8.61169 | 115.63285 | 9035 ft | 288 kts | 47° |
| 2026-05-05 12:01 | -8.59747 | 115.64710 | 9030 ft | 288 kts | 47° |
| 2026-05-05 12:01 | -8.58326 | 115.66135 | 9029 ft | 288 kts | 47° |
| 2026-05-05 12:01 | -8.56903 | 115.67561 | 9038 ft | 288 kts | 47° |
| 2026-05-05 12:02 | -8.55338 | 115.68829 | 9015 ft | 292 kts | 28° |
| 2026-05-05 12:02 | -8.53372 | 115.69346 | 9159 ft | 297 kts | 2° |
| 2026-05-05 12:02 | -8.51287 | 115.69170 | 9794 ft | 304 kts | 355° |
| 2026-05-05 12:02 | -8.49168 | 115.68900 | 10384 ft | 313 kts | 353° |
| 2026-05-05 12:03 | -8.47026 | 115.68173 | 10525 ft | 340 kts | 329° |
| 2026-05-05 12:03 | -8.45280 | 115.66480 | 10695 ft | 362 kts | 302° |
| 2026-05-05 12:03 | -8.44405 | 115.64053 | 10868 ft | 379 kts | 275° |
| 2026-05-05 12:03 | -8.44393 | 115.61365 | 11291 ft | 385 kts | 266° |
| 2026-05-05 12:04 | -8.44581 | 115.58656 | 11887 ft | 388 kts | 264° |
| 2026-05-05 12:04 | -8.44782 | 115.55956 | 12512 ft | 390 kts | 265° |
| 2026-05-05 12:04 | -8.44954 | 115.53211 | 13125 ft | 392 kts | 265° |
| 2026-05-05 12:04 | -8.45090 | 115.50445 | 13706 ft | 395 kts | 266° |
| 2026-05-05 12:05 | -8.45198 | 115.47662 | 14221 ft | 397 kts | 267° |
| 2026-05-05 12:05 | -8.45291 | 115.44867 | 14710 ft | 400 kts | 267° |
| 2026-05-05 12:05 | -8.45378 | 115.42045 | 15198 ft | 402 kts | 267° |
| 2026-05-05 12:05 | -8.45462 | 115.39242 | 15671 ft | 405 kts | 267° |
| 2026-05-05 12:06 | -8.45547 | 115.36382 | 16154 ft | 408 kts | 267° |
| 2026-05-05 12:06 | -8.45635 | 115.33503 | 16633 ft | 410 kts | 268° |
| 2026-05-05 12:06 | -8.45723 | 115.30611 | 17111 ft | 412 kts | 268° |
| 2026-05-05 12:06 | -8.45812 | 115.27706 | 17569 ft | 415 kts | 268° |
| 2026-05-05 12:07 | -8.45904 | 115.24820 | 18010 ft | 417 kts | 268° |
| 2026-05-05 12:07 | -8.46001 | 115.21880 | 18407 ft | 420 kts | 268° |
| 2026-05-05 12:07 | -8.46098 | 115.18914 | 18764 ft | 422 kts | 268° |
| 2026-05-05 12:07 | -8.46194 | 115.15937 | 19115 ft | 425 kts | 268° |
| 2026-05-05 12:08 | -8.46270 | 115.13600 | 19388 ft | 427 kts | 268° |
| 2026-05-05 12:08 | -8.46367 | 115.10595 | 19730 ft | 429 kts | 268° |
| 2026-05-05 12:08 | -8.46464 | 115.07574 | 20064 ft | 432 kts | 268° |
| 2026-05-05 12:08 | -8.46561 | 115.04530 | 20390 ft | 434 kts | 268° |
| 2026-05-05 12:09 | -8.46282 | 115.01494 | 20669 ft | 438 kts | 285° |
| 2026-05-05 12:09 | -8.45049 | 114.98691 | 20984 ft | 440 kts | 303° |
| 2026-05-05 12:09 | -8.43073 | 114.96339 | 21296 ft | 441 kts | 320° |
| 2026-05-05 12:09 | -8.40528 | 114.94605 | 21604 ft | 442 kts | 330° |
| 2026-05-05 12:10 | -8.37855 | 114.93050 | 21878 ft | 445 kts | 330° |
| 2026-05-05 12:10 | -8.35173 | 114.91468 | 22146 ft | 448 kts | 330° |
| 2026-05-05 12:10 | -8.32477 | 114.89870 | 22418 ft | 450 kts | 330° |
| 2026-05-05 12:10 | -8.29771 | 114.88268 | 22704 ft | 452 kts | 330° |
| 2026-05-05 12:11 | -8.27091 | 114.86681 | 22963 ft | 454 kts | 330° |
| 2026-05-05 12:11 | -8.24365 | 114.85066 | 23221 ft | 456 kts | 330° |
| 2026-05-05 12:11 | -8.21625 | 114.83442 | 23456 ft | 458 kts | 330° |
| 2026-05-05 12:11 | -8.18873 | 114.81810 | 23664 ft | 460 kts | 330° |
| 2026-05-05 12:12 | -8.16109 | 114.80171 | 23873 ft | 461 kts | 330° |
| 2026-05-05 12:12 | -8.13342 | 114.78529 | 24085 ft | 462 kts | 330° |
| 2026-05-05 12:12 | -8.10568 | 114.76885 | 24300 ft | 463 kts | 330° |
| 2026-05-05 12:12 | -8.07786 | 114.75235 | 24512 ft | 464 kts | 330° |
| 2026-05-05 12:13 | -8.04995 | 114.73581 | 24715 ft | 466 kts | 330° |
| 2026-05-05 12:13 | -8.02196 | 114.71922 | 24902 ft | 467 kts | 329° |
| 2026-05-05 12:13 | -7.99390 | 114.70258 | 25107 ft | 468 kts | 329° |
| 2026-05-05 12:13 | -7.96577 | 114.68592 | 25299 ft | 470 kts | 329° |
| 2026-05-05 12:14 | -7.93760 | 114.66912 | 25490 ft | 471 kts | 327° |
| 2026-05-05 12:14 | -7.91271 | 114.64769 | 25629 ft | 473 kts | 310° |
| 2026-05-05 12:14 | -7.89462 | 114.62011 | 25841 ft | 473 kts | 294° |
| 2026-05-05 12:14 | -7.88407 | 114.58873 | 26062 ft | 473 kts | 284° |
| 2026-05-05 12:15 | -7.87586 | 114.55659 | 26253 ft | 474 kts | 284° |
| 2026-05-05 12:15 | -7.86792 | 114.52426 | 26399 ft | 476 kts | 283° |
| 2026-05-05 12:15 | -7.85992 | 114.49183 | 26570 ft | 478 kts | 284° |
| 2026-05-05 12:15 | -7.85172 | 114.45934 | 26744 ft | 478 kts | 284° |
| 2026-05-05 12:16 | -7.84334 | 114.42684 | 26940 ft | 479 kts | 284° |
| 2026-05-05 12:16 | -7.83484 | 114.39432 | 27107 ft | 480 kts | 284° |
| 2026-05-05 12:16 | -7.82625 | 114.36173 | 27298 ft | 481 kts | 284° |
| 2026-05-05 12:16 | -7.81763 | 114.32907 | 27446 ft | 482 kts | 284° |
| 2026-05-05 12:17 | -7.80899 | 114.29636 | 27610 ft | 483 kts | 284° |
| 2026-05-05 12:17 | -7.80034 | 114.26357 | 27764 ft | 484 kts | 284° |
| 2026-05-05 12:17 | -7.79168 | 114.23073 | 27927 ft | 485 kts | 284° |
| 2026-05-05 12:17 | -7.78312 | 114.19824 | 28073 ft | 486 kts | 284° |
| 2026-05-05 12:18 | -7.77443 | 114.16526 | 28227 ft | 487 kts | 284° |
| 2026-05-05 12:18 | -7.76571 | 114.13219 | 28374 ft | 488 kts | 284° |
| 2026-05-05 12:18 | -7.75694 | 114.09910 | 28512 ft | 489 kts | 285° |
| 2026-05-05 12:18 | -7.74425 | 114.06735 | 28646 ft | 491 kts | 300° |
| 2026-05-05 12:19 | -7.72574 | 114.03851 | 28924 ft | 489 kts | 303° |
| 2026-05-05 12:19 | -7.70668 | 114.01017 | 29176 ft | 488 kts | 303° |
| 2026-05-05 12:19 | -7.68758 | 113.98195 | 29386 ft | 487 kts | 303° |
| 2026-05-05 12:19 | -7.66858 | 113.95366 | 29585 ft | 487 kts | 303° |
| 2026-05-05 12:20 | -7.64974 | 113.92533 | 29819 ft | 487 kts | 303° |
| 2026-05-05 12:20 | -7.63101 | 113.89688 | 30056 ft | 486 kts | 303° |
| 2026-05-05 12:20 | -7.61243 | 113.86849 | 30269 ft | 485 kts | 303° |
| 2026-05-05 12:20 | -7.59391 | 113.84009 | 30478 ft | 484 kts | 303° |
| 2026-05-05 12:21 | -7.57546 | 113.81177 | 30707 ft | 483 kts | 303° |
| 2026-05-05 12:21 | -7.55707 | 113.78352 | 30957 ft | 482 kts | 303° |
| 2026-05-05 12:21 | -7.53869 | 113.75531 | 31176 ft | 481 kts | 303° |
| 2026-05-05 12:21 | -7.52034 | 113.72715 | 31392 ft | 481 kts | 303° |
| 2026-05-05 12:22 | -7.50203 | 113.69909 | 31637 ft | 480 kts | 303° |
| 2026-05-05 12:22 | -7.48370 | 113.67100 | 31879 ft | 478 kts | 303° |
| 2026-05-05 12:22 | -7.46545 | 113.64304 | 32131 ft | 477 kts | 303° |
| 2026-05-05 12:22 | -7.45335 | 113.62451 | 32312 ft | 476 kts | 303° |
| 2026-05-05 12:23 | -7.43517 | 113.59668 | 32589 ft | 474 kts | 303° |
| 2026-05-05 12:23 | -7.41706 | 113.56894 | 32844 ft | 473 kts | 303° |
| 2026-05-05 12:23 | -7.39895 | 113.54122 | 33089 ft | 473 kts | 303° |
| 2026-05-05 12:23 | -7.37480 | 113.50426 | 33418 ft | 472 kts | 304° |
| 2026-05-05 12:24 | -7.36284 | 113.48597 | 33600 ft | 471 kts | 304° |
| 2026-05-05 12:24 | -7.34484 | 113.45843 | 33910 ft | 468 kts | 304° |
| 2026-05-05 12:24 | -7.32693 | 113.43103 | 34168 ft | 467 kts | 304° |
| 2026-05-05 12:24 | -7.30907 | 113.40370 | 34379 ft | 466 kts | 304° |
| 2026-05-05 12:25 | -7.29147 | 113.37678 | 34611 ft | 465 kts | 304° |
| 2026-05-05 12:25 | -7.27369 | 113.34960 | 34857 ft | 464 kts | 304° |
| 2026-05-05 12:25 | -7.25591 | 113.32242 | 35066 ft | 463 kts | 304° |
| 2026-05-05 12:25 | -7.23815 | 113.29528 | 35247 ft | 463 kts | 303° |
| 2026-05-05 12:26 | -7.22043 | 113.26821 | 35494 ft | 462 kts | 303° |
| 2026-05-05 12:26 | -7.20275 | 113.24119 | 35743 ft | 460 kts | 303° |
| 2026-05-05 12:26 | -7.18522 | 113.21441 | 35868 ft | 458 kts | 303° |
| 2026-05-05 12:26 | -7.16756 | 113.18743 | 35868 ft | 461 kts | 303° |
| 2026-05-05 12:27 | -7.13236 | 113.13368 | 35882 ft | 464 kts | 303° |
| 2026-05-05 12:27 | -7.09677 | 113.07935 | 35881 ft | 465 kts | 303° |
| 2026-05-05 12:28 | -7.06122 | 113.02511 | 35881 ft | 466 kts | 303° |
| 2026-05-05 12:28 | -7.02548 | 112.97058 | 35874 ft | 466 kts | 303° |
| 2026-05-05 12:29 | -6.98971 | 112.91603 | 35880 ft | 465 kts | 303° |
| 2026-05-05 12:29 | -6.95423 | 112.86194 | 35876 ft | 465 kts | 303° |
| 2026-05-05 12:30 | -6.91857 | 112.80760 | 35877 ft | 464 kts | 303° |
| 2026-05-05 12:30 | -6.88295 | 112.75333 | 35878 ft | 463 kts | 303° |
| 2026-05-05 12:31 | -6.84736 | 112.69912 | 35876 ft | 463 kts | 303° |
| 2026-05-05 12:31 | -6.81215 | 112.64552 | 35879 ft | 462 kts | 304° |
| 2026-05-05 12:32 | -6.77675 | 112.59163 | 35875 ft | 461 kts | 304° |
| 2026-05-05 12:32 | -6.74134 | 112.53775 | 35875 ft | 460 kts | 304° |
| 2026-05-05 12:33 | -6.70616 | 112.48424 | 35876 ft | 459 kts | 304° |
| 2026-05-05 12:33 | -6.67089 | 112.43061 | 35876 ft | 459 kts | 304° |
| 2026-05-05 12:34 | -6.63567 | 112.37707 | 35877 ft | 458 kts | 304° |
| 2026-05-05 12:34 | -6.60049 | 112.32361 | 35877 ft | 458 kts | 304° |
| 2026-05-05 12:35 | -6.56554 | 112.27051 | 35881 ft | 458 kts | 304° |
| 2026-05-05 12:35 | -6.53036 | 112.21708 | 35880 ft | 458 kts | 304° |
| 2026-05-05 12:36 | -6.49510 | 112.16354 | 35881 ft | 459 kts | 304° |
| 2026-05-05 12:36 | -6.45999 | 112.11024 | 35882 ft | 459 kts | 304° |
| 2026-05-05 12:37 | -6.42467 | 112.05664 | 35881 ft | 460 kts | 304° |
| 2026-05-05 12:37 | -6.38926 | 112.00292 | 35878 ft | 460 kts | 304° |
| 2026-05-05 12:38 | -6.35384 | 111.94920 | 35880 ft | 461 kts | 304° |
| 2026-05-05 12:38 | -6.31858 | 111.89573 | 35881 ft | 461 kts | 304° |
| 2026-05-05 12:39 | -6.28311 | 111.84195 | 35881 ft | 462 kts | 304° |
| 2026-05-05 12:39 | -6.24758 | 111.78811 | 35884 ft | 462 kts | 304° |
| 2026-05-05 12:40 | -6.21208 | 111.73428 | 35885 ft | 462 kts | 304° |
| 2026-05-05 12:40 | -6.17659 | 111.68044 | 35888 ft | 462 kts | 304° |
| 2026-05-05 12:41 | -6.14109 | 111.62661 | 35888 ft | 462 kts | 304° |
| 2026-05-05 12:41 | -6.10556 | 111.57275 | 35891 ft | 462 kts | 304° |
| 2026-05-05 12:42 | -6.07002 | 111.51889 | 35893 ft | 462 kts | 304° |
| 2026-05-05 12:42 | -6.03471 | 111.46539 | 35892 ft | 463 kts | 304° |
| 2026-05-05 12:43 | -5.99916 | 111.41153 | 35895 ft | 463 kts | 304° |
| 2026-05-05 12:43 | -5.96357 | 111.35763 | 35897 ft | 463 kts | 304° |
| 2026-05-05 12:44 | -5.92799 | 111.30375 | 35895 ft | 463 kts | 304° |
| 2026-05-05 12:44 | -5.89309 | 111.24941 | 35885 ft | 464 kts | 297° |
| 2026-05-05 12:45 | -5.88162 | 111.21912 | 35906 ft | 465 kts | 285° |
| 2026-05-05 12:45 | -5.87628 | 111.18702 | 35890 ft | 468 kts | 274° |
| 2026-05-05 12:45 | -5.88123 | 111.12181 | 35904 ft | 470 kts | 264° |
| 2026-05-05 12:46 | -5.88952 | 111.05667 | 35897 ft | 471 kts | 264° |
| 2026-05-05 12:46 | -5.89741 | 110.99139 | 35896 ft | 471 kts | 264° |
| 2026-05-05 12:47 | -5.90483 | 110.92599 | 35894 ft | 472 kts | 265° |
| 2026-05-05 12:47 | -5.91208 | 110.86048 | 35894 ft | 472 kts | 265° |
| 2026-05-05 12:48 | -5.91934 | 110.79495 | 35894 ft | 472 kts | 265° |
| 2026-05-05 12:48 | -5.92662 | 110.72940 | 35894 ft | 472 kts | 265° |
| 2026-05-05 12:49 | -5.93391 | 110.66384 | 35893 ft | 472 kts | 265° |
| 2026-05-05 12:49 | -5.94118 | 110.59831 | 35895 ft | 472 kts | 265° |
| 2026-05-05 12:50 | -5.94839 | 110.53323 | 35890 ft | 472 kts | 265° |
| 2026-05-05 12:50 | -5.95564 | 110.46773 | 35896 ft | 472 kts | 265° |
| 2026-05-05 12:51 | -5.96288 | 110.40225 | 35896 ft | 472 kts | 265° |
| 2026-05-05 12:51 | -5.96651 | 110.33661 | 35904 ft | 470 kts | 271° |
| 2026-05-05 12:52 | -5.96599 | 110.27090 | 35897 ft | 470 kts | 272° |
| 2026-05-05 12:52 | -5.96525 | 110.20516 | 35902 ft | 471 kts | 271° |
| 2026-05-05 12:53 | -5.96496 | 110.13942 | 35901 ft | 471 kts | 271° |
| 2026-05-05 12:53 | -5.96491 | 110.07361 | 35900 ft | 471 kts | 271° |
| 2026-05-05 12:54 | -5.96490 | 109.97476 | 35902 ft | 472 kts | 271° |
| 2026-05-05 12:55 | -5.96487 | 109.90879 | 35905 ft | 473 kts | 271° |
| 2026-05-05 12:55 | -5.96482 | 109.84275 | 35901 ft | 473 kts | 271° |
| 2026-05-05 12:56 | -5.96475 | 109.77661 | 35900 ft | 474 kts | 271° |
| 2026-05-05 12:56 | -5.96469 | 109.71044 | 35904 ft | 474 kts | 271° |
| 2026-05-05 12:57 | -5.96461 | 109.64425 | 35904 ft | 474 kts | 271° |
| 2026-05-05 12:57 | -5.96453 | 109.57806 | 35904 ft | 474 kts | 271° |
| 2026-05-05 12:58 | -5.96444 | 109.51189 | 35904 ft | 474 kts | 271° |
| 2026-05-05 12:58 | -5.96434 | 109.44572 | 35907 ft | 473 kts | 271° |
| 2026-05-05 12:59 | -5.96424 | 109.37960 | 35906 ft | 473 kts | 271° |
| 2026-05-05 12:59 | -5.96412 | 109.31349 | 35905 ft | 473 kts | 271° |
| 2026-05-05 13:00 | -5.96394 | 109.21485 | 35905 ft | 473 kts | 271° |
| 2026-05-05 13:01 | -5.96366 | 109.08278 | 35907 ft | 473 kts | 271° |
| 2026-05-05 13:01 | -5.96351 | 109.01674 | 35909 ft | 473 kts | 271° |
| 2026-05-05 13:02 | -5.96335 | 108.95068 | 35910 ft | 473 kts | 271° |
| 2026-05-05 13:02 | -5.96319 | 108.88457 | 35910 ft | 473 kts | 271° |
| 2026-05-05 13:03 | -5.96302 | 108.81846 | 35907 ft | 474 kts | 271° |
| 2026-05-05 13:03 | -5.96283 | 108.75228 | 35910 ft | 474 kts | 271° |
| 2026-05-05 13:04 | -5.96265 | 108.68613 | 35908 ft | 474 kts | 271° |
| 2026-05-05 13:04 | -5.96245 | 108.61992 | 35912 ft | 474 kts | 271° |
| 2026-05-05 13:05 | -5.96225 | 108.55370 | 35913 ft | 474 kts | 271° |
| 2026-05-05 13:05 | -5.95538 | 108.48832 | 35914 ft | 471 kts | 290° |
| 2026-05-05 13:06 | -5.94245 | 108.45825 | 35906 ft | 469 kts | 301° |
| 2026-05-05 13:06 | -5.92361 | 108.43167 | 35914 ft | 467 kts | 312° |
| 2026-05-05 13:06 | -5.88028 | 108.38308 | 35916 ft | 467 kts | 313° |
| 2026-05-05 13:07 | -5.83668 | 108.33466 | 35910 ft | 467 kts | 313° |
| 2026-05-05 13:07 | -5.79344 | 108.28584 | 35909 ft | 468 kts | 313° |
| 2026-05-05 13:08 | -5.75041 | 108.23682 | 35912 ft | 468 kts | 312° |
| 2026-05-05 13:08 | -5.70743 | 108.18777 | 35910 ft | 468 kts | 312° |
| 2026-05-05 13:09 | -5.66472 | 108.13907 | 35909 ft | 468 kts | 312° |
| 2026-05-05 13:09 | -5.62170 | 108.09004 | 35909 ft | 468 kts | 312° |
| 2026-05-05 13:10 | -5.57867 | 108.04103 | 35909 ft | 468 kts | 312° |
| 2026-05-05 13:10 | -5.53566 | 107.99205 | 35909 ft | 468 kts | 312° |
| 2026-05-05 13:11 | -5.49263 | 107.94307 | 35910 ft | 468 kts | 312° |
| 2026-05-05 13:11 | -5.45688 | 107.90238 | 35909 ft | 467 kts | 312° |
| 2026-05-05 13:12 | -5.42554 | 107.86670 | 35911 ft | 467 kts | 312° |
| 2026-05-05 13:12 | -5.38262 | 107.81787 | 35909 ft | 467 kts | 312° |
| 2026-05-05 13:13 | -5.33980 | 107.76914 | 35909 ft | 468 kts | 312° |
| 2026-05-05 13:13 | -5.29671 | 107.72012 | 35908 ft | 468 kts | 312° |
| 2026-05-05 13:14 | -5.26071 | 107.67917 | 35516 ft | 474 kts | 312° |
| 2026-05-05 13:14 | -5.23898 | 107.65408 | 34901 ft | 475 kts | 308° |
| 2026-05-05 13:14 | -5.22293 | 107.62557 | 34214 ft | 478 kts | 290° |
| 2026-05-05 13:15 | -5.21558 | 107.59297 | 33429 ft | 482 kts | 275° |
| 2026-05-05 13:15 | -5.21667 | 107.55909 | 32585 ft | 486 kts | 259° |
| 2026-05-05 13:15 | -5.22642 | 107.52662 | 31839 ft | 487 kts | 249° |
| 2026-05-05 13:15 | -5.23904 | 107.49494 | 31005 ft | 490 kts | 248° |
| 2026-05-05 13:16 | -5.25208 | 107.46362 | 30189 ft | 493 kts | 248° |
| 2026-05-05 13:16 | -5.26533 | 107.43169 | 29211 ft | 496 kts | 248° |
| 2026-05-05 13:16 | -5.27840 | 107.39955 | 28254 ft | 497 kts | 248° |
| 2026-05-05 13:16 | -5.29128 | 107.36724 | 27488 ft | 495 kts | 248° |
| 2026-05-05 13:17 | -5.30386 | 107.33529 | 26824 ft | 490 kts | 249° |
| 2026-05-05 13:17 | -5.31623 | 107.30369 | 26407 ft | 480 kts | 249° |
| 2026-05-05 13:17 | -5.32829 | 107.27290 | 26206 ft | 466 kts | 248° |
| 2026-05-05 13:17 | -5.33988 | 107.24336 | 25999 ft | 453 kts | 248° |
| 2026-05-05 13:18 | -5.35130 | 107.21430 | 25802 ft | 441 kts | 248° |
| 2026-05-05 13:18 | -5.36250 | 107.18575 | 25309 ft | 438 kts | 248° |
| 2026-05-05 13:18 | -5.37364 | 107.15726 | 24836 ft | 435 kts | 248° |
| 2026-05-05 13:18 | -5.38465 | 107.12902 | 24334 ft | 433 kts | 248° |
| 2026-05-05 13:19 | -5.39551 | 107.10119 | 23846 ft | 431 kts | 248° |
| 2026-05-05 13:19 | -5.40646 | 107.07312 | 23314 ft | 430 kts | 248° |
| 2026-05-05 13:19 | -5.41734 | 107.04523 | 22762 ft | 427 kts | 248° |
| 2026-05-05 13:19 | -5.42814 | 107.01756 | 22264 ft | 424 kts | 248° |
| 2026-05-05 13:20 | -5.43873 | 106.99042 | 21782 ft | 420 kts | 248° |
| 2026-05-05 13:20 | -5.44935 | 106.96319 | 21307 ft | 416 kts | 248° |
| 2026-05-05 13:20 | -5.45981 | 106.93644 | 21123 ft | 405 kts | 247° |
| 2026-05-05 13:20 | -5.47405 | 106.91258 | 20911 ft | 393 kts | 227° |
| 2026-05-05 13:21 | -5.49429 | 106.89460 | 20480 ft | 388 kts | 210° |
| 2026-05-05 13:21 | -5.51819 | 106.88302 | 20030 ft | 385 kts | 200° |
| 2026-05-05 13:21 | -5.54321 | 106.87333 | 19517 ft | 385 kts | 199° |
| 2026-05-05 13:21 | -5.56840 | 106.86406 | 19020 ft | 386 kts | 199° |
| 2026-05-05 13:22 | -5.59374 | 106.85473 | 18502 ft | 386 kts | 199° |
| 2026-05-05 13:22 | -5.61894 | 106.84533 | 17961 ft | 387 kts | 199° |
| 2026-05-05 13:22 | -5.64412 | 106.83579 | 17417 ft | 386 kts | 199° |
| 2026-05-05 13:22 | -5.66886 | 106.82632 | 16900 ft | 384 kts | 199° |
| 2026-05-05 13:23 | -5.69380 | 106.81672 | 16404 ft | 383 kts | 199° |
| 2026-05-05 13:23 | -5.71865 | 106.80713 | 15899 ft | 381 kts | 200° |
| 2026-05-05 13:23 | -5.74339 | 106.79758 | 15403 ft | 379 kts | 200° |
| 2026-05-05 13:23 | -5.76796 | 106.78810 | 14907 ft | 378 kts | 200° |
| 2026-05-05 13:24 | -5.79253 | 106.77862 | 14404 ft | 377 kts | 199° |
| 2026-05-05 13:24 | -5.81702 | 106.76917 | 13900 ft | 376 kts | 199° |
| 2026-05-05 13:24 | -5.84135 | 106.75959 | 13368 ft | 375 kts | 203° |
| 2026-05-05 13:24 | -5.86270 | 106.74478 | 12847 ft | 375 kts | 224° |
| 2026-05-05 13:25 | -5.87789 | 106.72371 | 12411 ft | 371 kts | 244° |
| 2026-05-05 13:25 | -5.88771 | 106.70022 | 12001 ft | 359 kts | 248° |
| 2026-05-05 13:25 | -5.89649 | 106.67720 | 11573 ft | 348 kts | 249° |
| 2026-05-05 13:25 | -5.90509 | 106.65483 | 11191 ft | 337 kts | 245° |
| 2026-05-05 13:26 | -5.91839 | 106.63657 | 11054 ft | 316 kts | 217° |
| 2026-05-05 13:26 | -5.93615 | 106.62682 | 10952 ft | 295 kts | 195° |
| 2026-05-05 13:26 | -5.95593 | 106.62360 | 10614 ft | 285 kts | 177° |
| 2026-05-05 13:26 | -5.97534 | 106.62650 | 10151 ft | 281 kts | 160° |
| 2026-05-05 13:27 | -5.99273 | 106.63500 | 9704 ft | 277 kts | 142° |
| 2026-05-05 13:27 | -6.00667 | 106.64807 | 9268 ft | 272 kts | 128° |
| 2026-05-05 13:27 | -6.01649 | 106.66375 | 9006 ft | 261 kts | 111° |
| 2026-05-05 13:27 | -6.02113 | 106.68107 | 8761 ft | 251 kts | 101° |
| 2026-05-05 13:28 | -6.02448 | 106.69793 | 8554 ft | 242 kts | 101° |
| 2026-05-05 13:28 | -6.02764 | 106.71424 | 8325 ft | 234 kts | 101° |
| 2026-05-05 13:28 | -6.03072 | 106.73010 | 8044 ft | 229 kts | 101° |
| 2026-05-05 13:28 | -6.03377 | 106.74580 | 7686 ft | 229 kts | 101° |
| 2026-05-05 13:29 | -6.03674 | 106.76142 | 7351 ft | 227 kts | 101° |
| 2026-05-05 13:29 | -6.03966 | 106.77697 | 7004 ft | 226 kts | 101° |
| 2026-05-05 13:29 | -6.04255 | 106.79244 | 6668 ft | 225 kts | 101° |
| 2026-05-05 13:29 | -6.04540 | 106.80781 | 6341 ft | 223 kts | 101° |
| 2026-05-05 13:30 | -6.04823 | 106.82311 | 5975 ft | 223 kts | 101° |
| 2026-05-05 13:30 | -6.05105 | 106.83831 | 5654 ft | 220 kts | 100° |
| 2026-05-05 13:30 | -6.05388 | 106.85341 | 5293 ft | 219 kts | 100° |
| 2026-05-05 13:30 | -6.05667 | 106.86819 | 4984 ft | 217 kts | 101° |
| 2026-05-05 13:31 | -6.05948 | 106.88312 | 4637 ft | 217 kts | 101° |
| 2026-05-05 13:31 | -6.06225 | 106.89793 | 4295 ft | 215 kts | 100° |
| 2026-05-05 13:31 | -6.06504 | 106.91274 | 3859 ft | 218 kts | 101° |
| 2026-05-05 13:31 | -6.06788 | 106.92789 | 3423 ft | 224 kts | 100° |
| 2026-05-05 13:32 | -6.07084 | 106.94360 | 3058 ft | 232 kts | 101° |
| 2026-05-05 13:32 | -6.07344 | 106.95937 | 3026 ft | 226 kts | 90° |
| 2026-05-05 13:32 | -6.06873 | 106.97395 | 2848 ft | 224 kts | 51° |
| 2026-05-05 13:32 | -6.05604 | 106.98305 | 2557 ft | 229 kts | 25° |
| 2026-05-05 13:33 | -6.04002 | 106.98619 | 2137 ft | 244 kts | 358° |
| 2026-05-05 13:33 | -6.02356 | 106.98147 | 2072 ft | 252 kts | 332° |
| 2026-05-05 13:33 | -6.01052 | 106.96959 | 2039 ft | 257 kts | 308° |
| 2026-05-05 13:33 | -6.00051 | 106.95479 | 2030 ft | 261 kts | 303° |
| 2026-05-05 13:34 | -5.99077 | 106.93939 | 2021 ft | 261 kts | 304° |
| 2026-05-05 13:34 | -5.98101 | 106.92414 | 2034 ft | 254 kts | 303° |
| 2026-05-05 13:34 | -5.97198 | 106.90959 | 1996 ft | 237 kts | 295° |
| 2026-05-05 13:34 | -5.96920 | 106.89412 | 2001 ft | 218 kts | 263° |
| 2026-05-05 13:35 | -5.97320 | 106.87998 | 1999 ft | 208 kts | 241° |
| 2026-05-05 13:35 | -5.98142 | 106.86814 | 2016 ft | 207 kts | 229° |
| 2026-05-05 13:35 | -5.99085 | 106.85711 | 2010 ft | 208 kts | 227° |
| 2026-05-05 13:35 | -6.00028 | 106.84627 | 2010 ft | 204 kts | 227° |
| 2026-05-05 13:36 | -6.00951 | 106.83562 | 2015 ft | 199 kts | 227° |
| 2026-05-05 13:36 | -6.01839 | 106.82532 | 1997 ft | 191 kts | 227° |